PWSweather.com
Personal Weather Stations
Station Observations
KVAGLENALL
West Henrico, Glen Allen, VA 23060-6503

West HenricoGlen Allen, VA 23060-6503

Lat: 37.6554, Lon: -77.5693

Elevation: 273

Station Type: Davis Vantage Pro II

www.glenallenweather.com

High Low Average
Temperature 45.7°F7.6°C 30.3°F-0.9°C 39.9°F4.4°C
Dew Point 42.5°F5.8°C 28.7°F-1.8°C 35.8°F2.1°C
Winds 4.0 mph 6.4 kmh Calm Calm 1.0 mph E1.6 kmh E
Wind Gusts 7.1 mph11.4 kmh -- 2.0 mph3.2 kmh
Humidity 97% 64% 86%
Pressure 30.10 in1019.3 mb 29.58 in1001.7 mb -
Precipitation 0.00 in0.0 mm - -
Hour Temp Dew Point Humidity Winds Wind Gusts Pressure Precip Precip Rate Daily Precip Total
12:30 AM 40.9°F4.9°C 34.6°F1.4°C 78% 1.0 mph N1.6 kmh N 5.1 mph8.2 kmh 30.07 in1018.3 mb 0.00 in0.0 mm 0.00 in0.0 mm 0.00 in0.0 mm
01:30 AM 37.6°F3.1°C 33.5°F0.8°C 85% Calm Calm -- 30.07 in1018.3 mb 0.00 in0.0 mm 0.00 in0.0 mm 0.00 in0.0 mm
02:30 AM 35.8°F2.1°C 32.9°F0.5°C 89% 1.0 mph NNE1.6 kmh NNE 2.0 mph3.2 kmh 30.07 in1018.3 mb 0.00 in0.0 mm 0.00 in0.0 mm 0.00 in0.0 mm
03:30 AM 34.6°F1.4°C 32.2°F0.1°C 91% 1.0 mph NNE1.6 kmh NNE 2.0 mph3.2 kmh 30.07 in1018.3 mb 0.00 in0.0 mm 0.00 in0.0 mm 0.00 in0.0 mm
04:30 AM 32.9°F0.5°C 31.1°F-0.5°C 93% Calm Calm -- 30.08 in1018.6 mb 0.00 in0.0 mm 0.00 in0.0 mm 0.00 in0.0 mm
05:30 AM 31.8°F-0.1°C 30.2°F-1.0°C 94% Calm Calm -- 30.08 in1018.6 mb 0.00 in0.0 mm 0.00 in0.0 mm 0.00 in0.0 mm
06:30 AM 30.3°F-0.9°C 28.7°F-1.8°C 94% Calm Calm -- 30.09 in1019.0 mb 0.00 in0.0 mm 0.00 in0.0 mm 0.00 in0.0 mm
07:30 AM 31.0°F-0.6°C 29.7°F-1.3°C 95% Calm Calm -- 30.08 in1018.6 mb 0.00 in0.0 mm 0.00 in0.0 mm 0.00 in0.0 mm
08:30 AM 34.5°F1.4°C 33.5°F0.8°C 96% Calm Calm -- 30.10 in1019.3 mb 0.00 in0.0 mm 0.00 in0.0 mm 0.00 in0.0 mm
09:30 AM 40.0°F4.4°C 34.0°F1.1°C 79% 1.0 mph ESE1.6 kmh ESE 4.0 mph6.4 kmh 30.09 in1019.0 mb 0.00 in0.0 mm 0.00 in0.0 mm 0.00 in0.0 mm
10:30 AM 42.8°F6.0°C 33.0°F0.6°C 68% 2.0 mph ESE3.2 kmh ESE 4.0 mph6.4 kmh 30.08 in1018.6 mb 0.00 in0.0 mm 0.00 in0.0 mm 0.00 in0.0 mm
11:30 AM 45.4°F7.4°C 34.0°F1.1°C 64% Calm Calm 7.1 mph11.4 kmh 30.04 in1017.3 mb 0.00 in0.0 mm 0.00 in0.0 mm 0.00 in0.0 mm
12:30 PM 45.3°F7.4°C 33.9°F1.1°C 64% 1.0 mph ESE1.6 kmh ESE 3.0 mph4.8 kmh 30.00 in1015.9 mb 0.00 in0.0 mm 0.00 in0.0 mm 0.00 in0.0 mm
01:30 PM 45.2°F7.3°C 34.2°F1.2°C 65% 1.0 mph SE1.6 kmh SE 2.0 mph3.2 kmh 29.98 in1015.2 mb 0.00 in0.0 mm 0.00 in0.0 mm 0.00 in0.0 mm
02:30 PM 45.7°F7.6°C 35.0°F1.7°C 66% 3.0 mph E4.8 kmh E 4.0 mph6.4 kmh 29.93 in1013.5 mb 0.00 in0.0 mm 0.00 in0.0 mm 0.00 in0.0 mm
03:30 PM 44.2°F6.8°C 39.4°F4.1°C 83% Calm Calm -- 29.92 in1013.2 mb 0.03 in0.8 mm 0.00 in0.0 mm 0.03 in0.8 mm
04:30 PM 42.5°F5.8°C 39.8°F4.3°C 90% 2.0 mph SSE3.2 kmh SSE 4.0 mph6.4 kmh 29.88 in1011.9 mb 0.09 in2.3 mm 0.00 in0.0 mm 0.09 in2.3 mm
05:30 PM 42.2°F5.7°C 40.6°F4.8°C 94% 4.0 mph S6.4 kmh S 4.0 mph6.4 kmh 29.85 in1010.8 mb 0.10 in2.5 mm 0.00 in0.0 mm 0.10 in2.5 mm
06:30 PM 41.8°F5.4°C 40.5°F4.7°C 95% 1.0 mph SE1.6 kmh SE 4.0 mph6.4 kmh 29.81 in1009.5 mb 0.06 in1.5 mm 0.00 in0.0 mm 0.10 in2.5 mm
07:30 PM 42.0°F5.6°C 41.0°F5.0°C 96% 2.0 mph SE3.2 kmh SE 7.1 mph11.4 kmh 29.76 in1007.8 mb 0.02 in0.5 mm 0.00 in0.0 mm 0.10 in2.5 mm
08:30 PM 42.7°F5.9°C 41.7°F5.4°C 96% 1.0 mph SW1.6 kmh SW 1.0 mph1.6 kmh 29.73 in1006.8 mb 0.00 in0.0 mm 0.00 in0.0 mm 0.10 in2.5 mm
09:30 PM 42.6°F5.9°C 41.6°F5.3°C 96% 2.0 mph SE3.2 kmh SE 3.0 mph4.8 kmh 29.67 in1004.7 mb 0.11 in2.8 mm 0.00 in0.0 mm 0.21 in5.3 mm
10:30 PM 42.5°F5.8°C 41.7°F5.4°C 97% Calm Calm 1.0 mph1.6 kmh 29.62 in1003.0 mb 0.17 in4.3 mm 0.00 in0.0 mm 0.27 in6.9 mm
11:30 PM 43.3°F6.3°C 42.5°F5.8°C 97% Calm Calm -- 29.58 in1001.7 mb 0.20 in5.1 mm 0.00 in0.0 mm 0.30 in7.6 mm